createdAt,value
2023-05-22T00:00:35.803Z,18.24
2023-05-22T00:03:07.055Z,18.34
2023-05-22T00:05:39.422Z,18.51
2023-05-22T00:08:11.777Z,18.65
2023-05-22T00:10:42.434Z,18.63
2023-05-22T00:13:13.435Z,18.62
2023-05-22T00:15:44.189Z,18.67
2023-05-22T00:18:15.027Z,18.65
2023-05-22T00:20:46.558Z,18.69
2023-05-22T00:23:17.343Z,18.74
2023-05-22T00:25:47.971Z,18.78
2023-05-22T00:28:18.811Z,18.80
2023-05-22T00:30:50.104Z,18.80
2023-05-22T00:33:20.784Z,18.80
2023-05-22T00:35:51.588Z,18.80
2023-05-22T00:38:33.259Z,18.81
2023-05-22T00:41:05.934Z,18.79
2023-05-22T00:43:36.945Z,18.76
2023-05-22T00:46:07.989Z,18.74
2023-05-22T00:48:38.882Z,18.72
2023-05-22T00:51:10.029Z,18.71
2023-05-22T00:53:40.948Z,18.69
2023-05-22T00:56:12.389Z,18.63
2023-05-22T00:58:43.769Z,18.55
2023-05-22T01:01:15.591Z,18.47
2023-05-22T01:03:47.885Z,18.39
2023-05-22T01:06:21.597Z,18.29
2023-05-22T01:08:52.234Z,18.19
2023-05-22T01:11:32.741Z,18.17
2023-05-22T01:14:10.907Z,18.20
2023-05-22T01:16:51.928Z,18.21
2023-05-22T01:19:47.695Z,18.24
2023-05-22T01:22:43.315Z,18.25
2023-05-22T01:25:32.436Z,18.22
2023-05-22T01:28:20.031Z,18.13
2023-05-22T01:30:57.763Z,18.03
2023-05-22T01:33:29.605Z,17.91
2023-05-22T01:36:03.986Z,17.77
2023-05-22T01:38:35.579Z,17.69
2023-05-22T01:41:07.546Z,17.72
2023-05-22T01:43:39.963Z,17.76
2023-05-22T01:46:11.051Z,17.77
2023-05-22T01:48:41.867Z,17.81
2023-05-22T01:51:17.465Z,17.85
2023-05-22T01:53:53.120Z,17.89
2023-05-22T01:56:31.812Z,17.90
2023-05-22T01:59:08.093Z,17.89
2023-05-22T02:01:40.671Z,17.89
2023-05-22T02:04:14.263Z,17.90
2023-05-22T02:06:47.652Z,17.92
2023-05-22T02:09:19.503Z,17.93
2023-05-22T02:11:51.559Z,17.92
2023-05-22T02:14:23.355Z,17.89
2023-05-22T02:16:55.024Z,17.88
2023-05-22T02:19:25.832Z,17.87
2023-05-22T02:21:56.721Z,17.83
2023-05-22T02:24:27.562Z,17.81
2023-05-22T02:26:58.376Z,17.80
2023-05-22T02:29:29.207Z,17.79
2023-05-22T02:32:00.409Z,17.76
2023-05-22T02:34:32.020Z,17.74
2023-05-22T02:37:04.234Z,17.70
2023-05-22T02:39:35.196Z,17.65
2023-05-22T02:42:06.592Z,17.63
2023-05-22T02:44:37.415Z,17.63
2023-05-22T02:47:09.627Z,17.65
2023-05-22T02:49:40.404Z,17.66
2023-05-22T02:52:11.341Z,17.68
2023-05-22T02:54:42.023Z,17.64
2023-05-22T02:57:12.729Z,17.61
2023-05-22T02:59:44.374Z,17.58
2023-05-22T03:02:15.422Z,17.56
2023-05-22T03:04:46.528Z,17.54
2023-05-22T03:07:17.157Z,17.54
2023-05-22T03:09:47.991Z,17.56
2023-05-22T03:12:18.892Z,17.58
2023-05-22T03:14:49.640Z,17.60
2023-05-22T03:17:20.435Z,17.58
2023-05-22T03:19:51.459Z,17.56
2023-05-22T03:22:23.168Z,17.52
2023-05-22T03:24:54.037Z,17.46
2023-05-22T03:27:24.706Z,17.41
2023-05-22T03:29:55.459Z,17.38
2023-05-22T03:32:27.267Z,17.40
2023-05-22T03:34:59.772Z,17.36
2023-05-22T03:37:30.513Z,17.40
2023-05-22T03:40:01.429Z,17.50
2023-05-22T03:42:34.198Z,17.59
2023-05-22T03:45:05.851Z,17.65
2023-05-22T03:47:36.725Z,17.69
2023-05-22T03:50:08.626Z,17.73
2023-05-22T03:52:39.543Z,17.74
2023-05-22T03:55:12.134Z,17.80
2023-05-22T03:57:44.079Z,17.88
2023-05-22T04:00:19.650Z,17.96
2023-05-22T04:02:50.612Z,18.04
2023-05-22T04:05:21.814Z,18.13
2023-05-22T04:07:53.920Z,18.18
2023-05-22T04:10:25.111Z,18.25
2023-05-22T04:12:55.965Z,18.32
2023-05-22T04:15:28.737Z,18.34
2023-05-22T04:17:59.720Z,18.33
2023-05-22T04:20:33.452Z,18.36
2023-05-22T04:23:04.162Z,18.34
2023-05-22T04:25:36.470Z,18.35
2023-05-22T04:28:05.660Z,18.39
2023-05-22T04:30:40.350Z,18.51
2023-05-22T04:33:12.820Z,18.73
2023-05-22T04:35:44.426Z,18.94
2023-05-22T04:38:16.099Z,19.16
2023-05-22T04:40:47.800Z,19.32
2023-05-22T04:43:19.786Z,19.51
2023-05-22T04:45:51.648Z,19.75
2023-05-22T04:48:22.727Z,19.95
2023-05-22T04:50:54.279Z,20.19
2023-05-22T04:53:25.307Z,20.39
2023-05-22T04:55:57.112Z,20.53
2023-05-22T04:58:28.333Z,20.71
2023-05-22T05:00:59.497Z,20.88
2023-05-22T05:03:31.261Z,21.00
2023-05-22T05:06:03.063Z,21.10
2023-05-22T05:08:33.978Z,21.23
2023-05-22T05:11:04.852Z,21.42
2023-05-22T05:13:37.485Z,21.62
2023-05-22T05:16:09.201Z,21.79
2023-05-22T05:18:40.596Z,21.93
2023-05-22T05:21:11.373Z,21.99
2023-05-22T05:23:42.523Z,21.99
2023-05-22T05:26:13.246Z,22.05
2023-05-22T05:28:44.126Z,22.00
2023-05-22T05:31:15.234Z,21.89
2023-05-22T05:34:18.651Z,21.85
2023-05-22T05:36:57.391Z,21.85
2023-05-22T05:39:29.660Z,21.85
2023-05-22T05:42:02.122Z,21.90
2023-05-22T05:44:33.155Z,21.92
2023-05-22T05:47:04.084Z,21.87
2023-05-22T05:49:35.969Z,21.82
2023-05-22T05:52:09.250Z,21.77
2023-05-22T05:54:46.596Z,21.68
2023-05-22T05:57:19.453Z,21.66
2023-05-22T05:59:50.504Z,21.60
2023-05-22T06:02:40.437Z,21.64
2023-05-22T06:05:13.620Z,21.70
2023-05-22T06:07:43.606Z,21.85
2023-05-22T06:10:15.551Z,22.02
2023-05-22T06:13:02.542Z,22.24
2023-05-22T06:15:33.773Z,22.43
2023-05-22T06:18:05.535Z,22.67
2023-05-22T06:20:34.908Z,22.79
2023-05-22T06:23:06.179Z,22.80
2023-05-22T06:25:37.461Z,23.00
2023-05-22T06:28:08.477Z,23.20
2023-05-22T06:30:43.580Z,23.40
2023-05-22T06:33:18.026Z,23.58
2023-05-22T06:35:49.551Z,23.69
2023-05-22T06:38:20.744Z,23.72
2023-05-22T06:40:51.823Z,23.74
2023-05-22T06:43:26.637Z,23.75
2023-05-22T06:46:05.588Z,23.79
2023-05-22T06:48:44.783Z,23.85
2023-05-22T06:51:26.530Z,23.98
2023-05-22T06:54:07.168Z,24.15
2023-05-22T06:56:39.667Z,24.26
2023-05-22T06:59:12.853Z,24.31
2023-05-22T07:02:02.380Z,24.39
2023-05-22T07:04:39.157Z,24.48
2023-05-22T07:07:12.860Z,24.62
2023-05-22T07:09:43.643Z,24.81
2023-05-22T07:12:14.619Z,25.03
2023-05-22T07:14:45.488Z,25.21
2023-05-22T07:17:17.003Z,25.41
2023-05-22T07:19:48.186Z,25.54
2023-05-22T07:22:18.981Z,25.68
2023-05-22T07:24:51.340Z,25.87
2023-05-22T07:27:22.456Z,26.10
2023-05-22T07:29:53.517Z,26.29
2023-05-22T07:32:24.843Z,26.40
2023-05-22T07:34:56.687Z,26.56
2023-05-22T07:37:27.566Z,26.66
2023-05-22T07:39:58.476Z,26.71
2023-05-22T07:42:30.289Z,26.70
2023-05-22T07:45:02.276Z,26.70
2023-05-22T07:47:33.009Z,26.79
2023-05-22T07:50:05.284Z,26.94
2023-05-22T07:52:36.736Z,27.03
2023-05-22T07:55:09.532Z,27.07
2023-05-22T07:57:41.662Z,27.14
2023-05-22T08:00:21.098Z,27.29
2023-05-22T08:02:52.149Z,27.32
2023-05-22T08:05:23.363Z,27.31
2023-05-22T08:07:54.160Z,27.26
2023-05-22T08:10:26.463Z,27.17
2023-05-22T08:12:58.628Z,27.23
2023-05-22T08:15:29.482Z,27.42
2023-05-22T08:18:00.558Z,27.61
2023-05-22T08:20:31.597Z,27.80
2023-05-22T08:23:02.559Z,27.97
2023-05-22T08:25:33.405Z,28.06
2023-05-22T08:28:04.175Z,28.13
2023-05-22T08:30:37.392Z,28.16
2023-05-22T08:33:08.344Z,28.25
2023-05-22T08:35:39.393Z,28.31
2023-05-22T08:38:10.161Z,28.37
2023-05-22T08:40:43.874Z,28.43
2023-05-22T08:43:17.061Z,28.51
2023-05-22T08:45:49.066Z,28.54
2023-05-22T08:48:23.188Z,28.55
2023-05-22T08:50:58.338Z,28.41
2023-05-22T08:53:32.622Z,28.19
2023-05-22T08:56:06.165Z,27.99
2023-05-22T08:58:38.605Z,27.88
2023-05-22T09:01:09.938Z,27.65
2023-05-22T09:03:40.878Z,27.54
2023-05-22T09:06:12.742Z,27.63
2023-05-22T09:08:44.274Z,27.77
2023-05-22T09:11:14.926Z,27.92
2023-05-22T09:13:45.753Z,28.04
2023-05-22T09:16:16.888Z,27.98
2023-05-22T09:18:47.779Z,28.03
2023-05-22T09:21:29.707Z,28.08
2023-05-22T09:24:03.786Z,28.19
2023-05-22T09:26:35.436Z,28.28
2023-05-22T09:29:05.358Z,28.34
2023-05-22T09:31:43.819Z,28.29
2023-05-22T09:34:15.658Z,28.15
2023-05-22T09:36:46.704Z,27.94
2023-05-22T09:39:17.823Z,27.78
2023-05-22T09:41:48.627Z,27.73
2023-05-22T09:44:19.409Z,27.76
2023-05-22T09:46:50.054Z,27.83
2023-05-22T09:49:20.889Z,27.96
2023-05-22T09:51:52.931Z,28.05
2023-05-22T09:54:26.272Z,28.05
2023-05-22T09:57:01.695Z,28.00
2023-05-22T09:59:34.324Z,27.95
2023-05-22T10:02:05.093Z,27.85
2023-05-22T10:04:36.734Z,27.69
2023-05-22T10:07:11.618Z,27.46
2023-05-22T10:09:43.322Z,27.34
2023-05-22T10:12:16.553Z,27.21
2023-05-22T10:14:47.607Z,26.99
2023-05-22T10:17:18.532Z,26.82
2023-05-22T10:19:50.095Z,26.70
2023-05-22T10:22:22.696Z,26.61
2023-05-22T10:24:54.374Z,26.60
2023-05-22T10:27:25.240Z,26.55
2023-05-22T10:30:03.840Z,26.50
2023-05-22T10:32:41.443Z,26.56
2023-05-22T10:35:21.838Z,26.67
2023-05-22T10:37:55.970Z,26.75
2023-05-22T10:40:31.122Z,26.68
2023-05-22T10:43:04.103Z,26.60
2023-05-22T10:45:36.802Z,26.63
2023-05-22T10:48:09.890Z,26.62
2023-05-22T10:50:41.733Z,26.54
2023-05-22T10:53:24.303Z,26.57
2023-05-22T10:55:56.854Z,26.60
2023-05-22T10:58:32.172Z,26.70
2023-05-22T11:01:14.746Z,26.83
2023-05-22T11:03:56.603Z,27.03
2023-05-22T11:06:42.397Z,27.05
2023-05-22T11:09:32.702Z,27.11
2023-05-22T11:12:18.137Z,27.24
2023-05-22T11:14:53.478Z,27.30
2023-05-22T11:17:29.659Z,27.45
2023-05-22T11:20:06.353Z,27.56
2023-05-22T11:22:40.024Z,27.62
2023-05-22T11:25:13.059Z,27.59
2023-05-22T11:27:44.274Z,27.54
2023-05-22T11:30:15.879Z,27.46
2023-05-22T11:32:45.896Z,27.38
2023-05-22T11:35:19.476Z,27.38
2023-05-22T11:37:51.796Z,27.39
2023-05-22T11:40:24.506Z,27.32
2023-05-22T11:42:55.557Z,27.26
2023-05-22T11:45:26.700Z,27.21
2023-05-22T11:47:58.270Z,27.22
2023-05-22T11:50:41.144Z,27.24
2023-05-22T11:53:12.963Z,27.31
2023-05-22T11:55:45.051Z,27.34
2023-05-22T11:58:18.004Z,27.33
2023-05-22T12:00:48.848Z,27.24
2023-05-22T12:03:19.729Z,27.12
2023-05-22T12:05:53.195Z,27.05
2023-05-22T12:08:24.285Z,27.05
2023-05-22T12:10:56.148Z,27.06
2023-05-22T12:13:29.156Z,27.02
2023-05-22T12:16:01.401Z,26.95
2023-05-22T12:18:37.969Z,26.93
2023-05-22T12:21:11.651Z,26.92
2023-05-22T12:23:51.156Z,26.93
2023-05-22T12:26:22.299Z,26.96
2023-05-22T12:28:56.791Z,27.00
2023-05-22T12:31:28.121Z,27.01
2023-05-22T12:33:59.588Z,26.96
2023-05-22T12:36:39.429Z,26.98
2023-05-22T12:39:11.874Z,26.98
2023-05-22T12:41:42.870Z,26.96
2023-05-22T12:44:14.184Z,26.93
2023-05-22T12:46:45.185Z,26.90
2023-05-22T12:49:15.979Z,26.89
2023-05-22T12:51:46.598Z,26.87
2023-05-22T12:54:17.333Z,26.84
2023-05-22T12:56:48.015Z,26.89
2023-05-22T12:59:20.695Z,26.95
2023-05-22T13:01:51.631Z,26.94
2023-05-22T13:04:22.594Z,26.91
2023-05-22T13:06:53.353Z,26.92
2023-05-22T13:09:24.237Z,26.93
2023-05-22T13:11:54.992Z,26.96
2023-05-22T13:14:25.815Z,26.93
2023-05-22T13:16:56.604Z,26.99
2023-05-22T13:19:27.400Z,26.99
2023-05-22T13:21:58.173Z,26.92
2023-05-22T13:24:28.942Z,26.92
2023-05-22T13:26:59.577Z,26.98
2023-05-22T13:29:30.228Z,26.97
2023-05-22T13:32:01.531Z,26.93
2023-05-22T13:34:32.308Z,26.91
2023-05-22T13:37:03.482Z,26.92
2023-05-22T13:39:34.543Z,26.96
2023-05-22T13:42:06.489Z,26.97
2023-05-22T13:44:37.584Z,26.95
2023-05-22T13:47:08.590Z,26.90
2023-05-22T13:49:39.479Z,26.82
2023-05-22T13:52:10.533Z,26.75
2023-05-22T13:54:41.651Z,26.74
2023-05-22T13:57:12.594Z,26.73
2023-05-22T13:59:43.343Z,26.72
2023-05-22T14:02:14.023Z,26.73
2023-05-22T14:04:47.000Z,26.76
2023-05-22T14:07:19.187Z,26.77
2023-05-22T14:09:50.038Z,26.77
2023-05-22T14:12:20.836Z,26.77
2023-05-22T14:14:52.169Z,26.76
2023-05-22T14:17:22.902Z,26.80
2023-05-22T14:19:53.705Z,26.80
2023-05-22T14:22:24.491Z,26.74
2023-05-22T14:24:55.112Z,26.73
2023-05-22T14:27:26.014Z,26.70
2023-05-22T14:29:56.760Z,26.62
2023-05-22T14:32:27.582Z,26.58
2023-05-22T14:34:58.306Z,26.54
2023-05-22T14:37:29.025Z,26.51
2023-05-22T14:39:59.734Z,26.48
2023-05-22T14:42:30.428Z,26.48
2023-05-22T14:45:01.204Z,26.45
2023-05-22T14:47:31.896Z,26.40
2023-05-22T14:50:14.855Z,26.39
2023-05-22T14:52:50.654Z,26.37
2023-05-22T14:55:21.791Z,26.37
2023-05-22T14:57:52.748Z,26.35
2023-05-22T15:00:24.165Z,26.34
2023-05-22T15:02:55.221Z,26.31
2023-05-22T15:05:26.962Z,26.29
2023-05-22T15:07:58.686Z,26.28
2023-05-22T15:10:29.534Z,26.27
2023-05-22T15:13:00.249Z,26.24
2023-05-22T15:15:31.077Z,26.18
2023-05-22T15:18:04.760Z,26.09
2023-05-22T15:20:35.511Z,25.97
2023-05-22T15:23:06.516Z,25.90
2023-05-22T15:25:37.544Z,25.87
2023-05-22T15:28:08.308Z,25.84
2023-05-22T15:30:41.838Z,25.83
2023-05-22T15:33:12.847Z,25.84
2023-05-22T15:35:46.688Z,25.82
2023-05-22T15:38:17.556Z,25.76
2023-05-22T15:40:48.345Z,25.67
2023-05-22T15:43:19.763Z,25.60
2023-05-22T15:45:51.229Z,25.50
2023-05-22T15:48:22.030Z,25.42
2023-05-22T15:50:52.911Z,25.34
2023-05-22T15:53:23.617Z,25.27
2023-05-22T15:55:54.696Z,25.21
2023-05-22T15:58:25.472Z,25.16
2023-05-22T16:00:56.437Z,25.10
2023-05-22T16:03:27.458Z,25.02
2023-05-22T16:05:58.248Z,24.97
2023-05-22T16:08:28.951Z,24.95
2023-05-22T16:11:01.568Z,24.91
2023-05-22T16:13:32.974Z,24.83
2023-05-22T16:16:05.934Z,24.78
2023-05-22T16:18:36.778Z,24.74
2023-05-22T16:21:08.350Z,24.69
2023-05-22T16:23:39.091Z,24.64
2023-05-22T16:26:09.931Z,24.59
2023-05-22T16:28:40.581Z,24.54
2023-05-22T16:31:13.005Z,24.52
2023-05-22T16:33:43.805Z,24.48
2023-05-22T16:36:14.704Z,24.49
2023-05-22T16:38:45.963Z,24.47
2023-05-22T16:41:16.705Z,24.45
2023-05-22T16:43:47.701Z,24.42
2023-05-22T16:46:19.471Z,24.41
2023-05-22T16:48:50.587Z,24.39
2023-05-22T16:51:21.424Z,24.37
2023-05-22T16:53:52.424Z,24.35
2023-05-22T16:56:23.248Z,24.32
2023-05-22T16:58:54.044Z,24.30
2023-05-22T17:01:25.221Z,24.26
2023-05-22T17:03:56.792Z,24.21
2023-05-22T17:06:29.299Z,24.17
2023-05-22T17:09:00.167Z,24.12
2023-05-22T17:11:31.038Z,24.09
2023-05-22T17:14:01.851Z,24.04
2023-05-22T17:16:33.432Z,23.99
2023-05-22T17:19:04.210Z,23.92
2023-05-22T17:21:35.318Z,23.87
2023-05-22T17:24:06.551Z,23.83
2023-05-22T17:26:37.509Z,23.78
2023-05-22T17:29:08.894Z,23.74
2023-05-22T17:31:39.913Z,23.72
2023-05-22T17:34:10.705Z,23.70
2023-05-22T17:36:43.294Z,23.67
2023-05-22T17:39:15.647Z,23.60
2023-05-22T17:41:46.355Z,23.55
2023-05-22T17:44:17.167Z,23.52
2023-05-22T17:46:49.401Z,23.50
2023-05-22T17:49:20.130Z,23.46
2023-05-22T17:51:51.656Z,23.43
2023-05-22T17:54:22.429Z,23.42
2023-05-22T17:56:55.009Z,23.40
2023-05-22T17:59:25.784Z,23.37
2023-05-22T18:01:56.560Z,23.35
2023-05-22T18:04:27.266Z,23.34
2023-05-22T18:06:58.097Z,23.29
2023-05-22T18:09:28.860Z,23.28
2023-05-22T18:12:02.421Z,23.26
2023-05-22T18:14:33.189Z,23.22
2023-05-22T18:17:04.669Z,23.19
2023-05-22T18:19:35.555Z,23.15
2023-05-22T18:22:06.553Z,23.11
2023-05-22T18:24:38.208Z,23.04
2023-05-22T18:27:09.134Z,22.97
2023-05-22T18:29:40.764Z,22.92
2023-05-22T18:32:13.565Z,22.88
2023-05-22T18:34:44.276Z,22.87
2023-05-22T18:37:15.056Z,22.84
2023-05-22T18:39:45.801Z,22.80
2023-05-22T18:42:17.051Z,22.77
2023-05-22T18:44:48.997Z,22.73
2023-05-22T18:47:20.298Z,22.68
2023-05-22T18:49:51.034Z,22.65
2023-05-22T18:52:21.852Z,22.63
2023-05-22T18:54:52.641Z,22.60
2023-05-22T18:57:23.421Z,22.55
2023-05-22T18:59:54.091Z,22.51
2023-05-22T19:02:25.116Z,22.49
2023-05-22T19:04:56.105Z,22.47
2023-05-22T19:07:27.006Z,22.45
2023-05-22T19:09:57.846Z,22.43
2023-05-22T19:12:31.718Z,22.41
2023-05-22T19:15:03.074Z,22.40
2023-05-22T19:17:33.986Z,22.38
2023-05-22T19:20:07.377Z,22.35
2023-05-22T19:22:38.201Z,22.31
2023-05-22T19:25:10.701Z,22.29
2023-05-22T19:27:41.391Z,22.26
2023-05-22T19:30:16.534Z,22.22
2023-05-22T19:32:49.722Z,22.17
2023-05-22T19:35:20.520Z,22.11
2023-05-22T19:37:51.740Z,22.08
2023-05-22T19:40:22.593Z,22.06
2023-05-22T19:42:53.562Z,22.05
2023-05-22T19:45:25.956Z,22.02
2023-05-22T19:47:58.546Z,21.99
2023-05-22T19:50:29.252Z,21.98
2023-05-22T19:52:59.957Z,21.97
2023-05-22T19:55:31.326Z,21.95
2023-05-22T19:58:02.045Z,21.95
2023-05-22T20:00:33.426Z,21.90
2023-05-22T20:03:04.398Z,21.84
2023-05-22T20:05:35.421Z,21.78
2023-05-22T20:08:07.624Z,21.75
2023-05-22T20:10:38.569Z,21.75
2023-05-22T20:13:09.571Z,21.76
2023-05-22T20:15:42.723Z,21.78
2023-05-22T20:18:14.427Z,21.79
2023-05-22T20:20:45.268Z,21.80
2023-05-22T20:23:16.151Z,21.80
2023-05-22T20:25:46.890Z,21.79
2023-05-22T20:28:17.662Z,21.79
2023-05-22T20:30:48.499Z,21.74
2023-05-22T20:33:19.486Z,21.71
2023-05-22T20:35:52.863Z,21.69
2023-05-22T20:38:23.977Z,21.66
2023-05-22T20:40:54.897Z,21.63
2023-05-22T20:43:26.255Z,21.61
2023-05-22T20:45:57.201Z,21.58
2023-05-22T20:48:27.891Z,21.57
2023-05-22T20:50:58.641Z,21.55
2023-05-22T20:53:29.340Z,21.53
2023-05-22T20:56:00.053Z,21.51
2023-05-22T20:58:30.919Z,21.49
2023-05-22T21:01:01.629Z,21.48
2023-05-22T21:03:32.490Z,21.45
2023-05-22T21:06:03.555Z,21.38
2023-05-22T21:08:34.314Z,21.30
2023-05-22T21:11:06.862Z,21.24
2023-05-22T21:13:37.694Z,21.21
2023-05-22T21:16:09.435Z,21.14
2023-05-22T21:18:40.143Z,21.08
2023-05-22T21:21:10.951Z,21.03
2023-05-22T21:23:41.883Z,21.02
2023-05-22T21:26:12.756Z,20.98
2023-05-22T21:28:44.876Z,20.93
2023-05-22T21:31:15.812Z,20.92
2023-05-22T21:33:46.676Z,20.84
2023-05-22T21:36:17.555Z,20.79
2023-05-22T21:38:48.563Z,20.73
2023-05-22T21:41:19.216Z,20.71
2023-05-22T21:43:50.038Z,20.71
2023-05-22T21:46:22.512Z,20.69
2023-05-22T21:48:53.683Z,20.63
2023-05-22T21:51:24.469Z,20.59
2023-05-22T21:53:55.475Z,20.57
2023-05-22T21:56:26.347Z,20.57
2023-05-22T21:58:56.997Z,20.59
2023-05-22T22:01:27.801Z,20.62
2023-05-22T22:03:58.774Z,20.65
2023-05-22T22:06:29.603Z,20.68
2023-05-22T22:09:00.351Z,20.61
2023-05-22T22:11:31.160Z,20.58
2023-05-22T22:14:02.073Z,20.60
2023-05-22T22:16:35.994Z,20.59
2023-05-22T22:19:07.280Z,20.56
2023-05-22T22:21:38.388Z,20.49
2023-05-22T22:24:09.380Z,20.40
2023-05-22T22:26:40.137Z,20.39
2023-05-22T22:29:11.045Z,20.40
2023-05-22T22:31:42.088Z,20.43
2023-05-22T22:34:12.862Z,20.46
2023-05-22T22:36:43.874Z,20.45
2023-05-22T22:39:14.836Z,20.45
2023-05-22T22:41:46.685Z,20.47
2023-05-22T22:44:17.601Z,20.44
2023-05-22T22:46:48.501Z,20.44
2023-05-22T22:49:21.861Z,20.37
2023-05-22T22:51:52.698Z,20.19
2023-05-22T22:54:23.510Z,20.14
2023-05-22T22:56:54.781Z,20.15
2023-05-22T22:59:25.668Z,20.17
2023-05-22T23:01:56.530Z,20.22
2023-05-22T23:04:28.443Z,20.23
2023-05-22T23:06:59.625Z,20.22
2023-05-22T23:09:30.450Z,20.22
2023-05-22T23:12:01.286Z,20.21
2023-05-22T23:14:32.071Z,20.24
2023-05-22T23:17:02.703Z,20.24
2023-05-22T23:19:33.663Z,20.26
2023-05-22T23:22:04.535Z,20.23
2023-05-22T23:24:35.379Z,20.22
2023-05-22T23:27:06.708Z,20.19
2023-05-22T23:29:37.445Z,20.18
2023-05-22T23:32:08.516Z,20.19
2023-05-22T23:34:39.316Z,20.17
2023-05-22T23:37:10.555Z,20.16
2023-05-22T23:39:41.425Z,20.13
2023-05-22T23:42:12.198Z,20.06
2023-05-22T23:44:43.103Z,20.08
2023-05-22T23:47:13.919Z,20.11
2023-05-22T23:49:44.784Z,20.12
2023-05-22T23:52:15.593Z,20.10
2023-05-22T23:54:46.315Z,20.07
2023-05-22T23:57:17.269Z,20.06
2023-05-22T23:59:48.043Z,19.99
